createdAt,value
2024-05-09T00:00:29.930Z,28.00
2024-05-09T00:01:22.986Z,29.50
2024-05-09T00:02:21.852Z,27.80
2024-05-09T00:03:21.881Z,31.40
2024-05-09T00:04:21.892Z,27.40
2024-05-09T00:05:22.037Z,29.70
2024-05-09T00:06:21.749Z,27.90
2024-05-09T00:07:21.776Z,31.50
2024-05-09T00:08:21.819Z,28.10
2024-05-09T00:09:21.718Z,29.40
2024-05-09T00:10:28.582Z,30.00
2024-05-09T00:11:22.950Z,31.50
2024-05-09T00:12:21.880Z,36.70
2024-05-09T00:13:21.669Z,32.50
2024-05-09T00:14:21.834Z,33.10
2024-05-09T00:15:21.671Z,30.40
2024-05-09T00:16:21.665Z,29.80
2024-05-09T00:17:21.784Z,29.00
2024-05-09T00:18:21.800Z,27.90
2024-05-09T00:19:21.715Z,31.50
2024-05-09T00:20:28.107Z,30.60
2024-05-09T00:21:22.618Z,27.80
2024-05-09T00:22:21.573Z,25.40
2024-05-09T00:23:21.654Z,25.60
2024-05-09T00:24:21.556Z,27.90
2024-05-09T00:25:21.543Z,25.50
2024-05-09T00:26:21.560Z,28.10
2024-05-09T00:27:21.518Z,25.80
2024-05-09T00:28:21.527Z,27.00
2024-05-09T00:29:21.578Z,29.50
2024-05-09T00:30:30.669Z,29.60
2024-05-09T00:31:22.516Z,31.00
2024-05-09T00:32:21.675Z,27.80
2024-05-09T00:33:21.729Z,32.10
2024-05-09T00:34:21.640Z,31.70
2024-05-09T00:35:21.552Z,28.50
2024-05-09T00:36:21.414Z,32.20
2024-05-09T00:37:21.412Z,28.90
2024-05-09T00:38:21.521Z,32.90
2024-05-09T00:39:21.380Z,31.40
2024-05-09T00:40:30.836Z,32.80
2024-05-09T00:41:22.438Z,32.00
2024-05-09T00:42:21.351Z,31.70
2024-05-09T00:43:21.341Z,32.50
2024-05-09T00:44:21.367Z,30.50
2024-05-09T00:45:21.319Z,30.40
2024-05-09T00:46:21.307Z,30.50
2024-05-09T00:47:21.492Z,34.80
2024-05-09T00:48:21.738Z,39.80
2024-05-09T00:49:21.452Z,36.30
2024-05-09T00:50:29.448Z,40.50
2024-05-09T00:51:22.331Z,42.30
2024-05-09T00:52:21.280Z,42.80
2024-05-09T00:53:21.413Z,40.30
2024-05-09T00:54:21.247Z,57.90
2024-05-09T00:55:21.204Z,41.70
2024-05-09T00:56:21.251Z,49.10
2024-05-09T00:57:21.196Z,51.50
2024-05-09T00:58:21.187Z,36.20
2024-05-09T00:59:21.284Z,35.50
2024-05-09T01:00:27.326Z,36.80
2024-05-09T01:01:22.224Z,38.30
2024-05-09T01:02:21.241Z,47.80
2024-05-09T01:03:21.606Z,40.10
2024-05-09T01:04:21.134Z,44.40
2024-05-09T01:05:21.221Z,52.60
2024-05-09T01:06:21.080Z,45.10
2024-05-09T01:07:21.074Z,42.40
2024-05-09T01:08:21.302Z,42.40
2024-05-09T01:09:21.058Z,43.40
2024-05-09T01:10:27.535Z,38.00
2024-05-09T01:11:22.140Z,40.00
2024-05-09T01:12:21.199Z,37.90
2024-05-09T01:13:21.086Z,39.70
2024-05-09T01:14:21.035Z,55.50
2024-05-09T01:15:20.978Z,44.50
2024-05-09T01:16:20.988Z,57.20
2024-05-09T01:17:21.059Z,49.10
2024-05-09T01:18:21.220Z,54.70
2024-05-09T01:19:21.057Z,53.10
2024-05-09T01:20:31.750Z,41.10
2024-05-09T01:21:22.018Z,38.60
2024-05-09T01:22:20.915Z,41.50
2024-05-09T01:23:21.050Z,38.30
2024-05-09T01:24:20.879Z,43.30
2024-05-09T01:25:20.940Z,48.50
2024-05-09T01:26:21.071Z,48.00
2024-05-09T01:27:20.847Z,48.50
2024-05-09T01:28:20.832Z,46.60
2024-05-09T01:29:20.981Z,50.40
2024-05-09T01:30:24.589Z,53.70
2024-05-09T01:31:21.831Z,52.60
2024-05-09T01:32:20.939Z,52.30
2024-05-09T01:33:20.919Z,43.00
2024-05-09T01:34:20.880Z,47.90
2024-05-09T01:35:20.825Z,44.40
2024-05-09T01:36:20.741Z,46.70
2024-05-09T01:37:20.734Z,58.30
2024-05-09T01:38:20.767Z,46.40
2024-05-09T01:39:20.708Z,60.10
2024-05-09T01:40:28.556Z,61.30
2024-05-09T01:41:20.743Z,54.10
2024-05-09T01:42:20.675Z,63.40
2024-05-09T01:43:20.667Z,63.50
2024-05-09T01:44:20.708Z,47.10
2024-05-09T01:45:20.647Z,59.40
2024-05-09T01:46:20.641Z,50.60
2024-05-09T01:47:20.841Z,45.70
2024-05-09T01:48:20.702Z,56.80
2024-05-09T01:49:20.688Z,41.60
2024-05-09T01:50:33.024Z,49.60
2024-05-09T01:51:21.724Z,45.00
2024-05-09T01:52:20.576Z,46.30
2024-05-09T01:53:20.599Z,46.10
2024-05-09T01:54:20.543Z,58.50
2024-05-09T01:55:20.548Z,42.10
2024-05-09T01:56:20.572Z,49.60
2024-05-09T01:57:20.508Z,52.80
2024-05-09T01:58:20.503Z,49.50
2024-05-09T01:59:20.550Z,58.60
2024-05-09T02:00:30.239Z,60.40
2024-05-09T02:01:20.510Z,45.10
2024-05-09T02:02:20.677Z,43.00
2024-05-09T02:03:20.596Z,41.10
2024-05-09T02:04:20.686Z,42.60
2024-05-09T02:05:20.489Z,40.60
2024-05-09T02:06:20.440Z,45.10
2024-05-09T02:07:20.423Z,43.00
2024-05-09T02:08:20.678Z,47.80
2024-05-09T02:09:20.375Z,49.80
2024-05-09T02:10:26.207Z,52.00
2024-05-09T02:11:21.464Z,57.80
2024-05-09T02:12:20.474Z,50.40
2024-05-09T02:13:20.327Z,49.50
2024-05-09T02:14:20.376Z,49.40
2024-05-09T02:15:20.318Z,51.70
2024-05-09T02:16:20.297Z,48.80
2024-05-09T02:17:20.389Z,56.70
2024-05-09T02:18:20.423Z,52.20
2024-05-09T02:19:20.477Z,45.40
2024-05-09T02:20:30.076Z,40.20
2024-05-09T02:21:20.260Z,44.40
2024-05-09T02:22:20.231Z,46.90
2024-05-09T02:23:20.285Z,44.40
2024-05-09T02:24:20.211Z,41.70
2024-05-09T02:25:20.200Z,47.50
2024-05-09T02:26:20.291Z,45.60
2024-05-09T02:27:20.177Z,48.20
2024-05-09T02:28:20.172Z,44.50
2024-05-09T02:29:20.194Z,55.20
2024-05-09T02:30:29.897Z,54.00
2024-05-09T02:31:20.140Z,88.60
2024-05-09T02:32:20.202Z,69.90
2024-05-09T02:33:20.344Z,64.90
2024-05-09T02:34:20.172Z,47.30
2024-05-09T02:35:20.099Z,57.50
2024-05-09T02:36:20.076Z,47.70
2024-05-09T02:37:20.075Z,60.60
2024-05-09T02:38:20.190Z,43.60
2024-05-09T02:39:20.057Z,50.10
2024-05-09T02:40:25.737Z,49.10
2024-05-09T02:41:21.247Z,51.70
2024-05-09T02:42:20.014Z,59.60
2024-05-09T02:43:20.001Z,56.60
2024-05-09T02:44:20.102Z,56.30
2024-05-09T02:45:19.975Z,43.50
2024-05-09T02:46:19.972Z,42.80
2024-05-09T02:47:20.135Z,46.40
2024-05-09T02:48:20.123Z,52.10
2024-05-09T02:49:20.060Z,53.50
2024-05-09T02:50:29.592Z,49.50
2024-05-09T02:51:20.943Z,57.70
2024-05-09T02:52:19.910Z,56.20
2024-05-09T02:53:19.961Z,50.60
2024-05-09T02:54:19.883Z,51.60
2024-05-09T02:55:19.891Z,57.40
2024-05-09T02:56:19.893Z,55.60
2024-05-09T02:57:19.855Z,57.60
2024-05-09T02:58:19.830Z,57.80
2024-05-09T02:59:19.865Z,71.20
2024-05-09T03:00:26.289Z,52.90
2024-05-09T03:01:20.854Z,52.80
2024-05-09T03:02:19.850Z,54.30
2024-05-09T03:03:19.948Z,47.30
2024-05-09T03:04:19.823Z,52.50
2024-05-09T03:05:19.792Z,54.90
2024-05-09T03:06:19.761Z,50.70
2024-05-09T03:07:20.326Z,53.10
2024-05-09T03:08:19.757Z,78.20
2024-05-09T03:09:19.712Z,46.40
2024-05-09T03:10:25.551Z,58.10
2024-05-09T03:11:20.830Z,59.20
2024-05-09T03:12:19.717Z,48.10
2024-05-09T03:13:19.755Z,67.00
2024-05-09T03:14:19.736Z,48.70
2024-05-09T03:15:19.646Z,62.80
2024-05-09T03:16:19.638Z,62.20
2024-05-09T03:17:19.738Z,63.10
2024-05-09T03:18:19.807Z,51.40
2024-05-09T03:19:19.979Z,47.30
2024-05-09T03:20:23.953Z,53.00
2024-05-09T03:21:20.720Z,47.80
2024-05-09T03:22:19.624Z,47.70
2024-05-09T03:23:19.730Z,47.60
2024-05-09T03:24:19.587Z,48.20
2024-05-09T03:25:19.539Z,53.70
2024-05-09T03:26:19.648Z,49.80
2024-05-09T03:27:19.546Z,52.80
2024-05-09T03:28:19.506Z,54.70
2024-05-09T03:29:19.516Z,54.50
2024-05-09T03:30:29.570Z,47.20
2024-05-09T03:31:20.500Z,52.20
2024-05-09T03:32:19.630Z,43.40
2024-05-09T03:33:20.587Z,50.80
2024-05-09T03:34:19.486Z,45.30
2024-05-09T03:35:19.551Z,39.90
2024-05-09T03:36:19.424Z,44.00
2024-05-09T03:37:19.407Z,43.50
2024-05-09T03:38:19.442Z,40.00
2024-05-09T03:39:19.393Z,42.60
2024-05-09T03:40:23.704Z,44.30
2024-05-09T03:41:20.427Z,43.90
2024-05-09T03:42:19.355Z,46.50
2024-05-09T03:43:19.651Z,48.50
2024-05-09T03:44:19.355Z,44.90
2024-05-09T03:45:19.321Z,44.50
2024-05-09T03:46:19.335Z,46.70
2024-05-09T03:47:19.487Z,46.60
2024-05-09T03:48:19.634Z,51.30
2024-05-09T03:49:19.460Z,41.30
2024-05-09T03:50:26.287Z,46.50
2024-05-09T03:51:20.408Z,45.70
2024-05-09T03:52:19.247Z,52.80
2024-05-09T03:53:19.343Z,46.00
2024-05-09T03:54:19.247Z,38.90
2024-05-09T03:55:19.207Z,38.20
2024-05-09T03:56:19.306Z,53.70
2024-05-09T03:57:19.190Z,48.80
2024-05-09T03:58:19.245Z,39.60
2024-05-09T03:59:19.328Z,46.60
2024-05-09T04:00:26.553Z,44.40
2024-05-09T04:01:20.241Z,40.50
2024-05-09T04:02:19.318Z,38.20
2024-05-09T04:03:19.485Z,48.60
2024-05-09T04:04:19.140Z,39.10
2024-05-09T04:05:19.170Z,38.60
2024-05-09T04:06:19.096Z,36.70
2024-05-09T04:07:19.081Z,38.30
2024-05-09T04:08:19.151Z,39.10
2024-05-09T04:09:19.059Z,38.60
2024-05-09T04:10:27.692Z,40.00
2024-05-09T04:11:20.179Z,45.60
2024-05-09T04:12:19.142Z,46.10
2024-05-09T04:13:19.027Z,49.20
2024-05-09T04:14:19.064Z,41.50
2024-05-09T04:15:19.006Z,46.00
2024-05-09T04:16:18.983Z,50.60
2024-05-09T04:17:19.072Z,68.90
2024-05-09T04:18:19.053Z,55.50
2024-05-09T04:19:19.095Z,46.90
2024-05-09T04:20:29.063Z,49.10
2024-05-09T04:21:19.960Z,55.10
2024-05-09T04:22:18.937Z,56.30
2024-05-09T04:23:18.945Z,54.40
2024-05-09T04:24:18.949Z,60.90
2024-05-09T04:25:18.920Z,125.80
2024-05-09T04:26:18.901Z,117.80
2024-05-09T04:27:18.868Z,51.80
2024-05-09T04:28:18.851Z,64.60
2024-05-09T04:29:18.900Z,169.80
2024-05-09T04:30:26.227Z,143.60
2024-05-09T04:31:19.861Z,305.90
2024-05-09T04:32:18.959Z,92.30
2024-05-09T04:33:19.081Z,82.50
2024-05-09T04:34:18.924Z,205.80
2024-05-09T04:35:18.791Z,259.80
2024-05-09T04:36:18.762Z,298.60
2024-05-09T04:37:18.751Z,277.40
2024-05-09T04:38:18.853Z,126.50
2024-05-09T04:39:18.727Z,66.40
2024-05-09T04:40:27.789Z,225.60
2024-05-09T04:41:19.812Z,98.90
2024-05-09T04:42:18.693Z,47.20
2024-05-09T04:43:18.788Z,42.00
2024-05-09T04:44:18.701Z,92.50
2024-05-09T04:45:18.667Z,53.40
2024-05-09T04:46:18.669Z,168.80
2024-05-09T04:47:18.753Z,299.80
2024-05-09T04:48:18.786Z,202.70
2024-05-09T04:49:18.772Z,190.60
2024-05-09T04:50:28.917Z,113.10
2024-05-09T04:51:18.604Z,95.70
2024-05-09T04:52:18.581Z,145.20
2024-05-09T04:53:18.697Z,134.40
2024-05-09T04:54:26.224Z,360.70
2024-05-09T04:55:19.578Z,301.80
2024-05-09T04:56:18.543Z,326.30
2024-05-09T04:57:18.532Z,378.90
2024-05-09T04:58:18.513Z,171.90
2024-05-09T04:59:18.555Z,319.90
2024-05-09T05:00:28.093Z,329.10
2024-05-09T05:01:19.530Z,364.20
2024-05-09T05:02:18.551Z,341.30
2024-05-09T05:03:18.772Z,225.00
2024-05-09T05:04:18.566Z,66.60
2024-05-09T05:05:18.538Z,278.90
2024-05-09T05:06:18.429Z,88.80
2024-05-09T05:07:18.422Z,196.20
2024-05-09T05:08:19.344Z,197.50
2024-05-09T05:09:18.391Z,164.70
2024-05-09T05:10:25.308Z,75.20
2024-05-09T05:11:18.466Z,136.80
2024-05-09T05:12:18.470Z,110.60
2024-05-09T05:13:19.315Z,141.50
2024-05-09T05:14:18.391Z,94.10
2024-05-09T05:15:18.324Z,151.00
2024-05-09T05:16:18.329Z,61.80
2024-05-09T05:17:18.463Z,77.90
2024-05-09T05:18:18.879Z,103.10
2024-05-09T05:19:18.496Z,87.00
2024-05-09T05:20:27.167Z,156.90
2024-05-09T05:21:19.561Z,81.80
2024-05-09T05:22:18.256Z,103.50
2024-05-09T05:23:18.371Z,233.80
2024-05-09T05:24:18.387Z,228.40
2024-05-09T05:25:18.220Z,370.70
2024-05-09T05:26:18.261Z,329.70
2024-05-09T05:27:18.219Z,284.10
2024-05-09T05:28:18.189Z,133.10
2024-05-09T05:29:20.835Z,135.20
2024-05-09T05:30:24.824Z,103.10
2024-05-09T05:31:19.259Z,85.40
2024-05-09T05:32:18.405Z,229.80
2024-05-09T05:33:18.789Z,212.80
2024-05-09T05:34:18.122Z,83.10
2024-05-09T05:35:18.203Z,136.00
2024-05-09T05:36:18.101Z,145.70
2024-05-09T05:37:18.094Z,107.00
2024-05-09T05:38:18.270Z,133.50
2024-05-09T05:39:18.092Z,95.60
2024-05-09T05:40:27.891Z,115.00
2024-05-09T05:41:19.135Z,86.40
2024-05-09T05:42:18.031Z,141.10
2024-05-09T05:43:18.186Z,39.50
2024-05-09T05:44:18.109Z,46.50
2024-05-09T05:45:18.002Z,60.00
2024-05-09T05:46:17.986Z,46.80
2024-05-09T05:47:18.051Z,58.10
2024-05-09T05:48:18.511Z,66.30
2024-05-09T05:49:18.100Z,28.50
2024-05-09T05:50:27.264Z,34.00
2024-05-09T05:51:19.162Z,34.50
2024-05-09T05:52:17.927Z,23.20
2024-05-09T05:53:17.956Z,57.10
2024-05-09T05:54:17.923Z,64.00
2024-05-09T05:55:17.891Z,70.50
2024-05-09T05:56:17.948Z,69.50
2024-05-09T05:57:17.883Z,123.00
2024-05-09T05:58:17.868Z,37.30
2024-05-09T05:59:17.925Z,38.90
2024-05-09T06:00:28.588Z,45.50
2024-05-09T06:01:18.886Z,36.20
2024-05-09T06:02:18.044Z,21.20
2024-05-09T06:03:17.875Z,27.90
2024-05-09T06:04:17.855Z,22.70
2024-05-09T06:05:17.811Z,82.20
2024-05-09T06:06:17.767Z,74.70
2024-05-09T06:07:17.771Z,59.00
2024-05-09T06:08:17.812Z,41.40
2024-05-09T06:09:17.739Z,30.00
2024-05-09T06:10:25.114Z,91.50
2024-05-09T06:11:18.810Z,36.40
2024-05-09T06:12:17.810Z,46.50
2024-05-09T06:13:17.702Z,51.70
2024-05-09T06:14:17.778Z,83.80
2024-05-09T06:15:17.671Z,61.20
2024-05-09T06:16:17.655Z,63.20
2024-05-09T06:17:17.771Z,37.00
2024-05-09T06:18:18.033Z,30.70
2024-05-09T06:19:17.715Z,33.10
2024-05-09T06:20:23.895Z,39.10
2024-05-09T06:21:17.736Z,38.60
2024-05-09T06:22:17.604Z,28.80
2024-05-09T06:23:17.637Z,28.40
2024-05-09T06:24:17.575Z,34.00
2024-05-09T06:25:17.558Z,30.20
2024-05-09T06:26:17.587Z,77.90
2024-05-09T06:27:17.535Z,43.10
2024-05-09T06:28:17.524Z,48.90
2024-05-09T06:29:17.659Z,49.00
2024-05-09T06:30:25.414Z,40.20
2024-05-09T06:31:17.493Z,37.20
2024-05-09T06:32:17.529Z,27.40
2024-05-09T06:33:17.900Z,31.40
2024-05-09T06:34:17.599Z,32.30
2024-05-09T06:35:17.504Z,24.20
2024-05-09T06:36:17.462Z,21.90
2024-05-09T06:37:17.434Z,24.10
2024-05-09T06:38:17.464Z,22.40
2024-05-09T06:39:17.429Z,24.80
2024-05-09T06:40:21.462Z,22.80
2024-05-09T06:41:17.427Z,21.90
2024-05-09T06:42:17.380Z,20.30
2024-05-09T06:43:19.185Z,22.40
2024-05-09T06:44:17.400Z,23.80
2024-05-09T06:45:17.374Z,21.20
2024-05-09T06:46:17.333Z,19.80
2024-05-09T06:47:17.437Z,21.90
2024-05-09T06:48:17.382Z,19.50
2024-05-09T06:49:17.435Z,20.00
2024-05-09T06:50:23.836Z,20.60
2024-05-09T06:51:17.496Z,20.30
2024-05-09T06:52:17.261Z,19.20
2024-05-09T06:53:17.488Z,19.30
2024-05-09T06:54:17.257Z,17.80
2024-05-09T06:55:17.245Z,17.70
2024-05-09T06:56:17.272Z,16.70
2024-05-09T06:57:17.211Z,17.10
2024-05-09T06:58:17.194Z,17.90
2024-05-09T06:59:17.208Z,18.70
2024-05-09T07:00:23.099Z,20.90
2024-05-09T07:01:18.261Z,17.60
2024-05-09T07:02:17.239Z,17.90
2024-05-09T07:03:18.784Z,18.50
2024-05-09T07:04:17.234Z,18.10
2024-05-09T07:05:17.267Z,19.90
2024-05-09T07:06:17.147Z,17.60
2024-05-09T07:07:17.101Z,18.70
2024-05-09T07:08:17.344Z,16.70
2024-05-09T07:09:17.079Z,18.10
2024-05-09T07:10:22.164Z,16.60
2024-05-09T07:11:17.144Z,16.00
2024-05-09T07:12:17.179Z,17.30
2024-05-09T07:13:17.033Z,16.30
2024-05-09T07:14:17.094Z,17.20
2024-05-09T07:15:17.017Z,18.80
2024-05-09T07:16:17.052Z,16.20
2024-05-09T07:17:17.128Z,15.50
2024-05-09T07:18:18.610Z,16.40
2024-05-09T07:19:17.140Z,17.70
2024-05-09T07:20:23.623Z,15.60
2024-05-09T07:21:18.051Z,18.40
2024-05-09T07:22:16.941Z,15.80
2024-05-09T07:23:16.977Z,16.70
2024-05-09T07:24:16.915Z,15.40
2024-05-09T07:25:16.907Z,16.70
2024-05-09T07:26:16.980Z,17.00
2024-05-09T07:27:16.899Z,17.40
2024-05-09T07:28:16.898Z,17.30
2024-05-09T07:29:16.929Z,15.70
2024-05-09T07:30:23.519Z,16.20
2024-05-09T07:31:16.835Z,14.70
2024-05-09T07:32:16.906Z,16.30
2024-05-09T07:33:17.198Z,16.60
2024-05-09T07:34:17.030Z,14.30
2024-05-09T07:35:16.895Z,16.10
2024-05-09T07:36:44.252Z,13.70
2024-05-09T07:37:44.249Z,13.80
2024-05-09T07:38:44.370Z,13.40
2024-05-09T07:39:44.233Z,16.30
2024-05-09T07:40:44.276Z,14.10
2024-05-09T07:41:44.255Z,15.80
2024-05-09T07:42:44.213Z,15.60
2024-05-09T07:43:44.207Z,14.70
2024-05-09T07:44:44.252Z,16.80
2024-05-09T07:45:51.317Z,14.80
2024-05-09T07:47:48.025Z,16.10
2024-05-09T07:49:12.731Z,15.30
2024-05-09T07:51:32.162Z,14.60
2024-05-09T07:53:34.367Z,15.30
2024-05-09T07:53:47.646Z,14.50
2024-05-09T07:54:44.290Z,12.30
2024-05-09T07:55:44.189Z,12.70
2024-05-09T07:56:44.400Z,14.80
2024-05-09T07:57:44.046Z,12.70
2024-05-09T07:58:44.033Z,12.50
2024-05-09T07:59:44.010Z,11.40
2024-05-09T08:00:44.105Z,13.20
2024-05-09T08:01:44.225Z,11.90
2024-05-09T08:02:44.008Z,12.10
2024-05-09T08:03:44.217Z,12.40
2024-05-09T08:04:44.062Z,13.50
2024-05-09T08:05:44.072Z,12.00
2024-05-09T08:06:44.070Z,11.10
2024-05-09T08:07:43.924Z,11.70
2024-05-09T08:08:43.911Z,12.30
2024-05-09T08:09:44.026Z,14.00
2024-05-09T08:10:43.944Z,11.80
2024-05-09T08:11:43.886Z,12.80
2024-05-09T08:12:43.930Z,13.40
2024-05-09T08:13:43.861Z,13.90
2024-05-09T08:14:43.852Z,12.20
2024-05-09T08:15:43.923Z,12.90
2024-05-09T08:16:43.829Z,11.80
2024-05-09T08:17:43.973Z,11.10
2024-05-09T08:18:43.875Z,12.10
2024-05-09T08:19:43.877Z,13.40
2024-05-09T08:20:43.776Z,12.10
2024-05-09T08:21:43.845Z,10.40
2024-05-09T08:22:43.749Z,12.30
2024-05-09T08:23:43.741Z,12.60
2024-05-09T08:24:43.792Z,11.20
2024-05-09T08:25:43.767Z,11.50
2024-05-09T08:26:43.757Z,10.60
2024-05-09T08:27:43.730Z,12.00
2024-05-09T08:28:43.726Z,11.60
2024-05-09T08:29:43.738Z,10.60
2024-05-09T08:30:43.802Z,9.70
2024-05-09T08:31:43.719Z,10.00
2024-05-09T08:32:43.728Z,11.20
2024-05-09T08:33:43.860Z,10.70
2024-05-09T08:34:43.663Z,9.80
2024-05-09T08:35:43.678Z,10.70
2024-05-09T08:36:43.678Z,10.30
2024-05-09T08:37:43.683Z,9.90
2024-05-09T08:38:43.579Z,10.60
2024-05-09T08:39:43.643Z,9.90
2024-05-09T08:40:43.730Z,10.20
2024-05-09T08:41:43.553Z,10.30
2024-05-09T08:42:43.575Z,11.50
2024-05-09T08:43:43.531Z,9.40
2024-05-09T08:44:43.523Z,10.00
2024-05-09T08:45:45.055Z,9.10
2024-05-09T08:46:43.515Z,11.10
2024-05-09T08:47:43.542Z,10.60
2024-05-09T08:48:43.638Z,9.60
2024-05-09T08:49:43.527Z,11.20
2024-05-09T08:50:43.815Z,10.80
2024-05-09T08:51:43.486Z,9.70
2024-05-09T08:52:43.457Z,9.50
2024-05-09T08:53:43.428Z,9.80
2024-05-09T08:54:43.495Z,8.80
2024-05-09T08:55:44.357Z,10.00
2024-05-09T08:56:43.396Z,9.00
2024-05-09T08:57:43.432Z,8.70
2024-05-09T08:58:43.370Z,9.00
2024-05-09T08:59:43.362Z,8.70
2024-05-09T09:00:43.613Z,8.70
2024-05-09T09:01:43.544Z,7.90
2024-05-09T09:02:43.501Z,8.70
2024-05-09T09:03:43.648Z,8.30
2024-05-09T09:04:43.384Z,10.40
2024-05-09T09:05:43.357Z,8.60
2024-05-09T09:06:43.343Z,10.40
2024-05-09T09:07:43.274Z,10.00
2024-05-09T09:08:43.273Z,9.70
2024-05-09T09:09:43.302Z,8.30
2024-05-09T09:10:43.598Z,9.60
2024-05-09T09:11:43.306Z,9.00
2024-05-09T09:12:43.330Z,8.00
2024-05-09T09:13:43.215Z,8.40
2024-05-09T09:14:43.205Z,9.10
2024-05-09T09:15:43.262Z,8.90
2024-05-09T09:16:43.184Z,9.90
2024-05-09T09:17:43.263Z,9.70
2024-05-09T09:18:43.370Z,9.40
2024-05-09T09:19:43.196Z,10.20
2024-05-09T09:20:43.200Z,10.40
2024-05-09T09:21:43.163Z,10.50
2024-05-09T09:22:43.120Z,9.40
2024-05-09T09:23:43.108Z,10.10
2024-05-09T09:24:43.132Z,11.60
2024-05-09T09:25:43.092Z,10.50
2024-05-09T09:26:43.078Z,10.30
2024-05-09T09:27:43.115Z,11.70
2024-05-09T09:28:43.062Z,11.20
2024-05-09T09:29:43.084Z,9.40
2024-05-09T09:30:43.345Z,13.30
2024-05-09T09:31:43.112Z,10.30
2024-05-09T09:32:43.241Z,11.70
2024-05-09T09:33:43.374Z,11.40
2024-05-09T09:34:43.214Z,10.40
2024-05-09T09:35:43.201Z,10.30
2024-05-09T09:36:43.168Z,9.80
2024-05-09T09:37:42.980Z,10.40
2024-05-09T09:38:42.954Z,10.10
2024-05-09T09:39:42.990Z,9.80
2024-05-09T09:40:46.977Z,11.90
2024-05-09T09:41:43.959Z,9.40
2024-05-09T09:42:43.019Z,12.20
2024-05-09T09:43:42.918Z,11.90
2024-05-09T09:44:47.834Z,10.70
2024-05-09T09:45:42.957Z,10.50
2024-05-09T09:46:42.877Z,10.90
2024-05-09T09:47:43.080Z,13.30
2024-05-09T09:48:43.034Z,11.90
2024-05-09T09:49:42.933Z,11.90
2024-05-09T09:50:42.847Z,10.40
2024-05-09T09:51:42.907Z,10.40
2024-05-09T09:52:42.810Z,10.80
2024-05-09T09:53:42.801Z,12.50
2024-05-09T09:54:42.798Z,10.40
2024-05-09T09:55:42.779Z,9.90
2024-05-09T09:56:42.767Z,13.30
2024-05-09T09:57:42.778Z,10.20
2024-05-09T09:58:42.759Z,10.90
2024-05-09T09:59:42.744Z,10.80
2024-05-09T10:00:42.900Z,10.40
2024-05-09T10:01:42.776Z,11.10
2024-05-09T10:02:42.734Z,11.20
2024-05-09T10:03:42.852Z,11.30
2024-05-09T10:04:42.796Z,11.80
2024-05-09T10:05:45.394Z,10.20
2024-05-09T10:06:42.718Z,11.90
2024-05-09T10:07:42.661Z,10.10
2024-05-09T10:08:42.827Z,10.20
2024-05-09T10:09:42.769Z,11.40
2024-05-09T10:10:42.706Z,9.70
2024-05-09T10:11:49.045Z,11.10
2024-05-09T10:12:42.644Z,11.70
2024-05-09T10:13:42.593Z,12.10
2024-05-09T10:14:42.580Z,11.80
2024-05-09T10:15:42.600Z,11.20
2024-05-09T10:16:42.562Z,12.80
2024-05-09T10:17:42.620Z,10.50
2024-05-09T10:18:42.778Z,11.60
2024-05-09T10:19:42.541Z,9.80
2024-05-09T10:20:42.586Z,11.80
2024-05-09T10:21:42.551Z,10.40
2024-05-09T10:22:42.512Z,9.80
2024-05-09T10:23:42.487Z,11.90
2024-05-09T10:24:42.516Z,10.90
2024-05-09T10:25:42.459Z,12.40
2024-05-09T10:26:42.474Z,11.80
2024-05-09T10:27:42.509Z,10.40
2024-05-09T10:28:42.443Z,10.80
2024-05-09T10:29:42.417Z,10.90
2024-05-09T10:30:43.337Z,10.30
2024-05-09T10:31:42.569Z,11.00
2024-05-09T10:32:42.607Z,10.10
2024-05-09T10:33:42.665Z,10.60
2024-05-09T10:34:42.388Z,11.10
2024-05-09T10:35:42.365Z,9.80
2024-05-09T10:36:42.364Z,9.90
2024-05-09T10:37:42.338Z,9.30
2024-05-09T10:38:42.340Z,9.80
2024-05-09T10:39:42.442Z,10.10
2024-05-09T10:40:42.467Z,10.00
2024-05-09T10:41:42.292Z,10.60
2024-05-09T10:42:42.291Z,10.90
2024-05-09T10:43:42.273Z,10.30
2024-05-09T10:44:42.294Z,10.30
2024-05-09T10:45:42.293Z,11.10
2024-05-09T10:46:42.271Z,9.80
2024-05-09T10:47:42.373Z,11.40
2024-05-09T10:48:42.362Z,10.40
2024-05-09T10:49:42.241Z,11.40
2024-05-09T10:50:42.196Z,11.60
2024-05-09T10:51:42.233Z,10.80
2024-05-09T10:52:42.178Z,10.60
2024-05-09T10:53:42.161Z,10.30
2024-05-09T10:54:42.232Z,10.60
2024-05-09T10:55:42.146Z,10.30
2024-05-09T10:56:42.224Z,10.60
2024-05-09T10:57:42.137Z,10.50
2024-05-09T10:58:42.126Z,10.70
2024-05-09T10:59:42.103Z,10.00
2024-05-09T11:00:42.287Z,9.80
2024-05-09T11:01:42.126Z,9.90
2024-05-09T11:02:42.218Z,8.50
2024-05-09T11:03:42.418Z,9.50
2024-05-09T11:04:42.170Z,8.70
2024-05-09T11:05:42.094Z,10.10
2024-05-09T11:06:42.098Z,8.70
2024-05-09T11:07:42.046Z,8.10
2024-05-09T11:08:42.055Z,8.80
2024-05-09T11:09:42.038Z,9.00
2024-05-09T11:10:42.178Z,9.10
2024-05-09T11:11:42.065Z,9.40
2024-05-09T11:12:41.985Z,9.70
2024-05-09T11:13:41.945Z,11.60
2024-05-09T11:14:41.959Z,8.10
2024-05-09T11:15:41.956Z,8.80
2024-05-09T11:16:41.950Z,9.80
2024-05-09T11:17:42.038Z,8.60
2024-05-09T11:18:42.101Z,9.10
2024-05-09T11:19:41.991Z,8.20
2024-05-09T11:20:41.925Z,10.00
2024-05-09T11:21:41.910Z,8.20
2024-05-09T11:22:41.859Z,8.90
2024-05-09T11:23:41.998Z,8.70
2024-05-09T11:24:41.849Z,10.90
2024-05-09T11:25:41.827Z,9.80
2024-05-09T11:26:41.846Z,8.40
2024-05-09T11:27:41.854Z,8.10
2024-05-09T11:28:41.799Z,8.70
2024-05-09T11:29:41.838Z,8.70
2024-05-09T11:30:41.837Z,8.00
2024-05-09T11:31:41.877Z,8.90
2024-05-09T11:32:41.874Z,8.60
2024-05-09T11:33:42.014Z,8.80
2024-05-09T11:34:41.803Z,7.80
2024-05-09T11:35:41.785Z,7.90
2024-05-09T11:36:41.775Z,13.40
2024-05-09T11:37:41.737Z,10.70
2024-05-09T11:38:41.717Z,38.20
2024-05-09T11:39:41.725Z,14.00
2024-05-09T11:40:41.859Z,7.80
2024-05-09T11:41:41.668Z,7.20
2024-05-09T11:42:41.746Z,14.60
2024-05-09T11:43:41.648Z,18.40
2024-05-09T11:44:41.650Z,9.20
2024-05-09T11:45:41.669Z,8.60
2024-05-09T11:46:41.624Z,7.40
2024-05-09T11:47:41.731Z,13.70
2024-05-09T11:48:41.788Z,12.90
2024-05-09T11:49:41.665Z,10.60
2024-05-09T11:50:41.638Z,52.50
2024-05-09T11:51:41.656Z,16.10
2024-05-09T11:52:41.571Z,8.60
2024-05-09T11:53:41.551Z,17.20
2024-05-09T11:54:41.572Z,9.00
2024-05-09T11:55:41.544Z,10.60
2024-05-09T11:56:41.527Z,8.10
2024-05-09T11:57:41.527Z,9.60
2024-05-09T11:58:41.531Z,7.70
2024-05-09T11:59:41.511Z,9.60
2024-05-09T12:00:41.607Z,7.80
2024-05-09T12:01:41.696Z,8.00
2024-05-09T12:02:41.471Z,8.80
2024-05-09T12:03:41.550Z,8.00
2024-05-09T12:04:41.662Z,7.60
2024-05-09T12:05:41.690Z,8.00
2024-05-09T12:06:41.568Z,7.20
2024-05-09T12:07:41.665Z,9.00
2024-05-09T12:08:41.406Z,10.10
2024-05-09T12:09:41.529Z,9.50
2024-05-09T12:10:41.735Z,8.30
2024-05-09T12:11:41.525Z,8.50
2024-05-09T12:12:41.720Z,8.20
2024-05-09T12:13:41.421Z,8.20
2024-05-09T12:14:41.545Z,9.90
2024-05-09T12:15:41.498Z,9.50
2024-05-09T12:16:41.767Z,8.10
2024-05-09T12:17:41.459Z,8.70
2024-05-09T12:18:41.462Z,9.80
2024-05-09T12:19:41.346Z,9.30
2024-05-09T12:20:41.495Z,8.20
2024-05-09T12:21:41.498Z,7.40
2024-05-09T12:22:41.412Z,8.60
2024-05-09T12:23:41.327Z,8.70
2024-05-09T12:24:41.434Z,7.70
2024-05-09T12:25:41.366Z,7.60
2024-05-09T12:26:41.311Z,8.40
2024-05-09T12:27:41.353Z,8.60
2024-05-09T12:28:41.342Z,8.50
2024-05-09T12:29:41.343Z,9.30
2024-05-09T12:30:41.735Z,8.30
2024-05-09T12:31:41.469Z,6.90
2024-05-09T12:32:41.516Z,7.60
2024-05-09T12:33:41.307Z,7.90
2024-05-09T12:34:41.287Z,7.40
2024-05-09T12:35:43.217Z,8.30
2024-05-09T12:36:41.212Z,7.20
2024-05-09T12:37:41.186Z,8.00
2024-05-09T12:38:41.192Z,7.60
2024-05-09T12:39:41.292Z,8.10
2024-05-09T12:40:41.331Z,10.40
2024-05-09T12:41:41.167Z,8.30
2024-05-09T12:42:41.123Z,8.30
2024-05-09T12:43:41.296Z,7.70
2024-05-09T12:44:41.198Z,7.50
2024-05-09T12:45:41.205Z,7.40
2024-05-09T12:46:41.217Z,7.00
2024-05-09T12:47:41.180Z,7.20
2024-05-09T12:48:41.248Z,7.80
2024-05-09T12:49:41.401Z,7.30
2024-05-09T12:50:41.844Z,9.00
2024-05-09T12:51:41.067Z,8.40
2024-05-09T12:52:41.022Z,7.50
2024-05-09T12:53:41.147Z,8.00
2024-05-09T12:54:41.038Z,9.30
2024-05-09T12:55:48.416Z,7.60
2024-05-09T12:56:42.083Z,9.20
2024-05-09T12:57:40.984Z,9.00
2024-05-09T12:58:40.949Z,8.00